Time;durP1;ratioP1;P1;durP2;ratioP2;P2;SDS_P1;SDS_P2;PMS_P1;PMS_P2;Temp;Humidity;BMP_temperature;BMP_pressure;BME280_temperature;BME280_humidity;BME280_pressure;Samples;Min_cycle;Max_cycle;Signal;HPM_P1;HPM_P2
2023/04/03 00:01:10;;;;;;;3.20;2.88;;;8.40;99.90;;;;;;4969812;28;20042;-71
2023/04/03 00:03:37;;;;;;;3.17;2.33;;;8.40;99.90;;;;;;4970814;28;20037;-71
2023/04/03 00:06:03;;;;;;;3.00;2.70;;;8.40;99.90;;;;;;4970471;28;20046;-71
2023/04/03 00:08:30;;;;;;;2.60;2.33;;;8.40;99.90;;;;;;4972154;28;20065;-71
2023/04/03 00:10:56;;;;;;;3.40;2.75;;;8.30;99.90;;;;;;4969111;28;20038;-71
2023/04/03 00:13:23;;;;;;;3.00;2.67;;;8.20;99.90;;;;;;4975803;28;20041;-71
2023/04/03 00:15:49;;;;;;;3.05;2.78;;;8.20;99.90;;;;;;4980971;28;20038;-71
2023/04/03 00:18:15;;;;;;;2.97;2.42;;;8.10;99.90;;;;;;4967349;28;20058;-71
2023/04/03 00:20:41;;;;;;;2.83;2.40;;;8.10;99.90;;;;;;4978675;28;20049;-70
2023/04/03 00:23:06;;;;;;;4.38;2.70;;;8.00;99.90;;;;;;4972869;28;20726;-71
2023/04/03 00:25:32;;;;;;;3.60;3.10;;;8.00;99.90;;;;;;4982093;28;20038;-71
2023/04/03 00:27:58;;;;;;;4.80;3.33;;;8.00;99.90;;;;;;4979516;28;20037;-71
2023/04/03 00:30:24;;;;;;;9.90;6.65;;;7.90;99.90;;;;;;4984939;28;20096;-71
2023/04/03 00:32:51;;;;;;;3.70;3.13;;;7.90;99.90;;;;;;4985645;28;20027;-71
2023/04/03 00:35:19;;;;;;;3.97;3.58;;;7.90;99.90;;;;;;4964978;28;20045;-71
2023/04/03 00:37:45;;;;;;;6.22;3.20;;;7.90;99.90;;;;;;4978628;28;20038;-71
2023/04/03 00:40:12;;;;;;;5.82;4.53;;;7.90;99.90;;;;;;4982330;28;20057;-71
2023/04/03 00:42:38;;;;;;;6.00;4.95;;;7.80;99.90;;;;;;4977806;28;20096;-71
2023/04/03 00:45:04;;;;;;;3.50;2.75;;;7.90;99.90;;;;;;4967832;28;20038;-71
2023/04/03 00:47:31;;;;;;;4.85;3.70;;;7.80;99.90;;;;;;4977353;28;20070;-71
2023/04/03 00:49:57;;;;;;;2.58;2.38;;;7.80;99.90;;;;;;4981291;28;20108;-71
2023/04/03 00:52:28;;;;;;;3.28;2.97;;;7.70;99.90;;;;;;4973570;28;20052;-71
2023/04/03 00:54:58;;;;;;;3.58;2.95;;;7.70;99.90;;;;;;4943646;28;20057;-71
2023/04/03 00:57:24;;;;;;;4.63;2.28;;;7.70;99.90;;;;;;4967787;28;20497;-70
2023/04/03 00:59:56;;;;;;;2.95;2.33;;;7.70;99.90;;;;;;4970450;28;20042;-71
2023/04/03 01:02:22;;;;;;;2.22;2.03;;;7.60;99.90;;;;;;4962305;28;21643;-71
2023/04/03 01:04:48;;;;;;;1.95;1.75;;;7.60;99.90;;;;;;4978224;28;20046;-71
2023/04/03 01:07:19;;;;;;;2.97;2.42;;;7.70;99.90;;;;;;4976334;28;20057;-71
2023/04/03 01:09:46;;;;;;;1.80;1.67;;;7.70;99.90;;;;;;4979104;28;20049;-71
2023/04/03 01:12:23;;;;;;;3.05;1.67;;;7.70;99.90;;;;;;4976746;28;20088;-71
2023/04/03 01:14:52;;;;;;;3.65;3.20;;;7.70;99.90;;;;;;4981211;28;20068;-71
2023/04/03 01:17:40;;;;;;;2.60;2.28;;;7.60;99.90;;;;;;4978121;28;20033;-71
2023/04/03 01:20:11;;;;;;;3.33;1.80;;;7.50;99.90;;;;;;4988441;28;20478;-71
2023/04/03 01:22:57;;;;;;;2.75;1.80;;;7.60;99.90;;;;;;4984959;28;20044;-72
2023/04/03 01:25:23;;;;;;;4.22;3.58;;;7.60;99.90;;;;;;4955574;28;20051;-71
2023/04/03 01:27:49;;;;;;;4.35;3.75;;;7.50;99.90;;;;;;4988577;28;20029;-71
2023/04/03 01:30:18;;;;;;;3.90;3.53;;;7.70;99.90;;;;;;4985116;28;20419;-71
2023/04/03 01:32:44;;;;;;;3.13;2.42;;;7.80;99.90;;;;;;4985491;28;20069;-71
2023/04/03 01:35:10;;;;;;;3.30;2.65;;;7.70;99.90;;;;;;4970965;28;20582;-70
2023/04/03 01:37:36;;;;;;;4.07;2.90;;;7.60;99.90;;;;;;4987886;28;20582;-71
2023/04/03 01:40:03;;;;;;;4.53;3.70;;;7.70;99.90;;;;;;4980710;28;20072;-71
2023/04/03 01:42:29;;;;;;;4.18;3.15;;;7.80;99.90;;;;;;4970722;28;20126;-71
2023/04/03 01:44:55;;;;;;;4.03;3.25;;;7.80;99.90;;;;;;4957389;28;20418;-71
2023/04/03 01:47:22;;;;;;;2.47;2.10;;;7.80;99.90;;;;;;4975740;28;20128;-71
2023/04/03 01:49:47;;;;;;;3.83;1.70;;;7.90;99.90;;;;;;4977234;28;20062;-71
2023/04/03 01:52:13;;;;;;;2.85;2.55;;;7.90;99.90;;;;;;4968297;28;20096;-72
2023/04/03 01:54:39;;;;;;;2.47;2.22;;;7.80;99.90;;;;;;4949161;28;20057;-71
2023/04/03 01:57:05;;;;;;;2.22;1.50;;;7.80;99.90;;;;;;4971988;28;20029;-71
2023/04/03 01:59:30;;;;;;;4.13;3.10;;;7.80;99.90;;;;;;4974048;28;20042;-71
2023/04/03 02:01:56;;;;;;;4.85;3.22;;;7.80;99.90;;;;;;4968742;28;20038;-71
2023/04/03 02:04:22;;;;;;;2.38;2.15;;;7.90;99.90;;;;;;4972073;28;20514;-71
2023/04/03 02:06:48;;;;;;;2.47;2.25;;;7.80;99.90;;;;;;4977669;28;20058;-71
2023/04/03 02:09:14;;;;;;;3.95;2.72;;;7.70;99.90;;;;;;4984551;28;20410;-71
2023/04/03 02:11:40;;;;;;;2.30;1.80;;;7.70;99.90;;;;;;4981495;28;20022;-71
2023/04/03 02:14:05;;;;;;;1.98;1.77;;;7.60;99.90;;;;;;4973988;28;20751;-71
2023/04/03 02:16:31;;;;;;;2.83;2.55;;;7.40;99.90;;;;;;4977944;28;20080;-71
2023/04/03 02:18:57;;;;;;;4.30;3.05;;;7.30;99.90;;;;;;4980964;28;20044;-71
2023/04/03 02:21:23;;;;;;;3.28;2.75;;;7.40;99.90;;;;;;4974431;28;20038;-71
2023/04/03 02:23:49;;;;;;;2.05;1.85;;;7.40;99.90;;;;;;4978736;28;20046;-71
2023/04/03 02:26:16;;;;;;;1.83;1.70;;;7.50;99.90;;;;;;4977234;28;20186;-71
2023/04/03 02:28:42;;;;;;;2.55;1.85;;;7.50;99.90;;;;;;4980658;28;20043;-71
2023/04/03 02:31:09;;;;;;;1.75;1.65;;;7.40;99.90;;;;;;4974380;28;20617;-71
2023/04/03 02:33:38;;;;;;;3.30;1.80;;;7.40;99.90;;;;;;4988021;28;20030;-71
2023/04/03 02:36:05;;;;;;;2.45;2.00;;;7.40;99.90;;;;;;4977261;28;20069;-72
2023/04/03 02:38:31;;;;;;;2.35;1.60;;;7.40;99.90;;;;;;4973660;28;20573;-71
2023/04/03 02:41:10;;;;;;;2.13;1.92;;;7.30;99.90;;;;;;4987691;28;20043;-71
2023/04/03 02:43:36;;;;;;;1.80;1.60;;;7.30;99.90;;;;;;4987975;28;20049;-72
2023/04/03 02:46:02;;;;;;;1.77;1.65;;;7.20;99.90;;;;;;4984332;28;20030;-71
2023/04/03 02:48:28;;;;;;;1.70;1.52;;;7.30;99.90;;;;;;4976828;28;21470;-71
2023/04/03 02:50:54;;;;;;;1.35;1.25;;;7.30;99.90;;;;;;4960772;28;20541;-71
2023/04/03 02:53:20;;;;;;;1.60;1.50;;;7.40;99.90;;;;;;4973420;28;21816;-71
2023/04/03 02:55:46;;;;;;;1.75;1.38;;;7.30;99.90;;;;;;4988328;28;20124;-71
2023/04/03 02:58:11;;;;;;;1.95;1.55;;;7.30;99.90;;;;;;4993458;28;20057;-72
2023/04/03 03:00:37;;;;;;;1.50;1.40;;;7.30;99.90;;;;;;4987243;28;20046;-71
2023/04/03 03:03:03;;;;;;;1.65;1.48;;;7.30;99.90;;;;;;4977270;28;20034;-70
2023/04/03 03:05:30;;;;;;;1.95;1.80;;;7.40;99.90;;;;;;4991541;28;20050;-71
2023/04/03 03:07:55;;;;;;;1.48;1.33;;;7.40;99.90;;;;;;4977163;28;20087;-71
2023/04/03 03:10:22;;;;;;;3.67;2.85;;;7.40;99.90;;;;;;4986478;28;20054;-71
2023/04/03 03:12:48;;;;;;;10.60;6.30;;;7.30;99.90;;;;;;4991101;28;20543;-71
2023/04/03 03:15:15;;;;;;;16.02;8.02;;;7.30;99.90;;;;;;4993335;28;20585;-71
2023/04/03 03:17:41;;;;;;;3.22;2.22;;;7.40;99.90;;;;;;4991414;28;20084;-71
2023/04/03 03:20:07;;;;;;;1.67;1.48;;;7.40;99.90;;;;;;4985384;28;20023;-72
2023/04/03 03:22:34;;;;;;;1.88;1.58;;;7.40;99.90;;;;;;4985605;28;20084;-71
2023/04/03 03:25:00;;;;;;;1.60;1.50;;;7.40;99.90;;;;;;4980748;28;20034;-72
2023/04/03 03:27:26;;;;;;;1.67;1.55;;;7.50;99.90;;;;;;4967731;28;20045;-71
2023/04/03 03:29:52;;;;;;;1.90;1.60;;;7.50;99.90;;;;;;4988879;28;20045;-72
2023/04/03 03:32:17;;;;;;;1.95;1.58;;;7.50;99.90;;;;;;4980645;28;20084;-71
2023/04/03 03:34:43;;;;;;;2.78;1.80;;;7.60;99.90;;;;;;4990948;28;20057;-71
2023/04/03 03:37:09;;;;;;;1.88;1.75;;;7.60;99.90;;;;;;4984986;28;20058;-71
2023/04/03 03:39:34;;;;;;;1.95;1.40;;;7.50;99.90;;;;;;4993639;28;20121;-71
2023/04/03 03:42:00;;;;;;;1.90;1.70;;;7.40;99.90;;;;;;4989989;28;20045;-71
2023/04/03 03:44:27;;;;;;;1.33;1.23;;;7.40;99.90;;;;;;4989880;28;21226;-71
2023/04/03 03:46:53;;;;;;;1.30;1.20;;;7.30;99.90;;;;;;4985801;28;20034;-71
2023/04/03 03:49:19;;;;;;;1.67;1.38;;;7.30;99.90;;;;;;4970300;28;20053;-72
2023/04/03 03:51:45;;;;;;;1.55;1.45;;;7.30;99.90;;;;;;4988693;28;20038;-71
2023/04/03 03:54:11;;;;;;;1.38;1.20;;;7.30;99.90;;;;;;4977330;28;20700;-71
2023/04/03 03:56:36;;;;;;;1.70;1.60;;;7.20;99.90;;;;;;4981211;28;20034;-71
2023/04/03 03:59:02;;;;;;;1.45;1.30;;;7.20;99.90;;;;;;4976498;28;20134;-72
2023/04/03 04:01:28;;;;;;;1.88;1.52;;;7.30;99.90;;;;;;4994687;28;20034;-71
2023/04/03 04:03:54;;;;;;;1.15;1.05;;;7.20;99.90;;;;;;4991484;28;20038;-71
2023/04/03 04:06:21;;;;;;;1.45;1.30;;;7.00;99.90;;;;;;4990369;28;20038;-71
2023/04/03 04:08:46;;;;;;;1.33;1.10;;;7.10;99.90;;;;;;4993730;28;20131;-71
2023/04/03 04:11:12;;;;;;;1.20;1.10;;;7.10;99.90;;;;;;4986396;28;20054;-71
2023/04/03 04:13:38;;;;;;;1.30;1.20;;;7.10;99.90;;;;;;4992746;28;20042;-71
2023/04/03 04:16:04;;;;;;;1.63;1.23;;;7.00;99.90;;;;;;4993098;28;20038;-71
2023/04/03 04:18:29;;;;;;;1.30;1.20;;;7.10;99.90;;;;;;4993902;28;20376;-71
2023/04/03 04:20:55;;;;;;;1.75;1.35;;;7.00;99.90;;;;;;4986275;28;20116;-71
2023/04/03 04:23:21;;;;;;;2.22;1.40;;;7.00;99.90;;;;;;4989440;28;20077;-69
2023/04/03 04:25:50;;;;;;;1.80;1.23;;;7.10;99.90;;;;;;4988684;28;20378;-69
2023/04/03 04:28:16;;;;;;;1.98;1.48;;;7.00;99.90;;;;;;4988285;28;20048;-69
2023/04/03 04:30:41;;;;;;;1.85;1.58;;;6.90;99.90;;;;;;4984472;28;20038;-69
2023/04/03 04:33:07;;;;;;;2.15;1.70;;;7.00;99.90;;;;;;4968357;28;21868;-69
2023/04/03 04:35:34;;;;;;;2.13;1.65;;;6.90;99.90;;;;;;4976231;28;20038;-69
2023/04/03 04:38:00;;;;;;;2.50;1.48;;;7.00;99.90;;;;;;4980333;28;20042;-69
2023/04/03 04:40:26;;;;;;;1.75;1.60;;;7.00;99.90;;;;;;4982836;28;20335;-70
2023/04/03 04:42:52;;;;;;;1.42;1.30;;;6.90;99.90;;;;;;4963576;28;20450;-69
2023/04/03 04:45:17;;;;;;;2.00;1.60;;;7.00;99.90;;;;;;4982673;28;20062;-69
2023/04/03 04:47:43;;;;;;;2.05;1.65;;;7.00;99.90;;;;;;4967270;28;20510;-70
2023/04/03 04:50:10;;;;;;;1.45;1.13;;;7.00;99.90;;;;;;4983513;28;21892;-71
2023/04/03 04:52:36;;;;;;;1.60;1.50;;;7.00;99.90;;;;;;4982048;28;20096;-71
2023/04/03 04:55:01;;;;;;;1.15;1.15;;;7.00;99.90;;;;;;4976171;28;20217;-71
2023/04/03 04:57:27;;;;;;;1.63;1.15;;;7.00;99.90;;;;;;4981241;28;21039;-71
2023/04/03 04:59:52;;;;;;;1.63;1.20;;;6.90;99.90;;;;;;4978599;28;20120;-70
2023/04/03 05:02:18;;;;;;;1.38;1.20;;;7.00;99.90;;;;;;4971931;28;20038;-69
2023/04/03 05:04:44;;;;;;;0.98;0.98;;;7.00;99.90;;;;;;4973414;28;20436;-72
2023/04/03 05:07:10;;;;;;;0.95;0.90;;;7.00;99.90;;;;;;4956058;28;20652;-71
2023/04/03 05:09:36;;;;;;;1.50;1.27;;;7.00;99.90;;;;;;4955348;28;21255;-73
2023/04/03 05:12:02;;;;;;;1.67;1.35;;;7.10;99.90;;;;;;4967793;28;22093;-71
2023/04/03 05:14:28;;;;;;;1.65;1.45;;;7.20;99.90;;;;;;4966454;28;20049;-71
2023/04/03 05:16:55;;;;;;;1.63;0.98;;;7.20;99.90;;;;;;4966856;28;20057;-71
2023/04/03 05:19:22;;;;;;;2.72;0.93;;;7.20;99.90;;;;;;4968898;28;20612;-71
2023/04/03 05:21:48;;;;;;;0.90;0.90;;;7.20;99.90;;;;;;4971868;28;20046;-71
2023/04/03 05:24:16;;;;;;;1.05;0.80;;;7.30;99.90;;;;;;4970867;28;20034;-70
2023/04/03 05:26:43;;;;;;;1.23;0.70;;;7.30;99.90;;;;;;4972961;28;20069;-70
2023/04/03 05:29:09;;;;;;;1.38;1.02;;;7.30;99.90;;;;;;4966523;28;20046;-70
2023/04/03 05:31:35;;;;;;;1.25;1.05;;;7.40;99.90;;;;;;4973264;28;20588;-68
2023/04/03 05:34:01;;;;;;;3.00;1.50;;;7.30;99.90;;;;;;4979230;28;20083;-69
2023/04/03 05:36:27;;;;;;;1.23;0.93;;;7.30;99.90;;;;;;4979548;28;20537;-70
2023/04/03 05:38:53;;;;;;;0.70;0.70;;;7.40;99.90;;;;;;4981733;28;20117;-69
2023/04/03 05:41:20;;;;;;;1.35;0.77;;;7.40;99.90;;;;;;4979744;28;20577;-69
2023/04/03 05:43:46;;;;;;;1.20;0.82;;;7.30;99.90;;;;;;4978287;28;20033;-69
2023/04/03 05:46:17;;;;;;;1.15;0.80;;;7.30;99.90;;;;;;4979795;28;20465;-69
2023/04/03 05:48:43;;;;;;;1.10;0.90;;;7.30;99.90;;;;;;4992979;28;20038;-71
2023/04/03 05:51:25;;;;;;;0.73;0.73;;;7.40;99.90;;;;;;4987901;28;20120;-72
2023/04/03 05:53:56;;;;;;;0.75;0.75;;;7.50;99.90;;;;;;4980034;28;20038;-71
2023/04/03 05:56:22;;;;;;;1.08;0.95;;;7.60;99.90;;;;;;4989468;28;20033;-71
2023/04/03 05:58:47;;;;;;;2.38;0.77;;;7.60;99.90;;;;;;4985403;28;20042;-71
2023/04/03 06:01:13;;;;;;;0.85;0.60;;;7.60;99.90;;;;;;4984258;28;20612;-71
2023/04/03 06:03:40;;;;;;;0.75;0.50;;;7.50;99.90;;;;;;4989136;28;20103;-71
2023/04/03 06:06:06;;;;;;;0.50;0.50;;;7.50;99.90;;;;;;4982704;28;20033;-70
2023/04/03 06:08:32;;;;;;;0.77;0.60;;;7.70;99.90;;;;;;4981940;28;20130;-72
2023/04/03 06:10:58;;;;;;;1.25;0.43;;;7.70;99.90;;;;;;4988049;28;20098;-69
2023/04/03 06:13:24;;;;;;;0.68;0.60;;;7.60;99.90;;;;;;4981799;28;20034;-70
2023/04/03 06:15:49;;;;;;;0.80;0.47;;;7.50;99.90;;;;;;4976999;28;20033;-70
2023/04/03 06:18:15;;;;;;;0.50;0.50;;;7.40;99.90;;;;;;4984648;28;20640;-70
2023/04/03 06:20:41;;;;;;;0.68;0.50;;;7.40;99.90;;;;;;4973991;28;20336;-70
2023/04/03 06:23:06;;;;;;;0.57;0.40;;;7.40;99.90;;;;;;4973098;28;20625;-69
2023/04/03 06:25:33;;;;;;;2.40;0.50;;;7.40;99.90;;;;;;4982128;28;20126;-69
2023/04/03 06:27:59;;;;;;;0.50;0.50;;;7.50;99.90;;;;;;4967593;28;20106;-70
2023/04/03 06:30:26;;;;;;;1.02;0.50;;;7.60;99.90;;;;;;4981395;28;20042;-72
2023/04/03 06:32:52;;;;;;;0.50;0.40;;;7.80;99.90;;;;;;4973765;28;20034;-72
2023/04/03 06:35:17;;;;;;;0.80;0.52;;;7.90;99.90;;;;;;4971028;28;20483;-71
2023/04/03 06:37:43;;;;;;;1.55;0.45;;;7.90;99.90;;;;;;4987632;28;20046;-71
2023/04/03 06:40:32;;;;;;;0.88;0.50;;;8.00;99.90;;;;;;4990558;28;20065;-71
2023/04/03 06:42:58;;;;;;;0.70;0.38;;;8.00;99.90;;;;;;4990630;28;20065;-72
2023/04/03 06:45:25;;;;;;;0.95;0.57;;;8.10;99.90;;;;;;4989668;28;21314;-72
2023/04/03 06:47:51;;;;;;;1.10;0.43;;;8.00;99.90;;;;;;4989680;28;20123;-72
2023/04/03 06:50:16;;;;;;;0.85;0.60;;;8.00;99.90;;;;;;4981663;28;20601;-73
2023/04/03 06:52:42;;;;;;;0.40;0.40;;;8.10;99.90;;;;;;4981881;28;20076;-72
2023/04/03 06:55:09;;;;;;;0.52;0.40;;;8.20;99.90;;;;;;4984411;28;20042;-71
2023/04/03 06:57:35;;;;;;;0.60;0.55;;;8.30;99.90;;;;;;4990886;28;20105;-72
2023/04/03 07:00:01;;;;;;;0.75;0.38;;;8.20;99.90;;;;;;4988624;28;20768;-73
2023/04/03 07:02:26;;;;;;;0.82;0.40;;;8.20;99.90;;;;;;4983040;28;20042;-73
2023/04/03 07:04:52;;;;;;;0.80;0.50;;;8.30;99.90;;;;;;4995872;28;20037;-72
2023/04/03 07:07:18;;;;;;;1.08;0.38;;;8.30;99.90;;;;;;4985362;28;20034;-72
2023/04/03 07:09:43;;;;;;;1.00;0.40;;;8.20;99.90;;;;;;4992411;28;20124;-72
2023/04/03 07:12:09;;;;;;;0.20;0.20;;;8.20;99.90;;;;;;4990338;28;20681;-73
2023/04/03 07:14:35;;;;;;;0.65;0.30;;;8.20;99.30;;;;;;4997442;28;20037;-72
2023/04/03 07:17:01;;;;;;;0.57;0.40;;;8.20;99.60;;;;;;4998287;28;20076;-72
2023/04/03 07:19:27;;;;;;;1.48;0.40;;;8.30;99.90;;;;;;4989887;28;20064;-72
2023/04/03 07:21:54;;;;;;;0.10;0.10;;;8.60;99.90;;;;;;4987016;28;20062;-72
2023/04/03 07:24:20;;;;;;;1.15;0.50;;;9.00;99.90;;;;;;4989102;28;20147;-71
2023/04/03 07:26:49;;;;;;;0.80;0.43;;;9.30;99.90;;;;;;4979120;28;20030;-71
2023/04/03 07:29:15;;;;;;;0.60;0.30;;;9.60;99.90;;;;;;4972207;28;20042;-71
2023/04/03 07:31:41;;;;;;;1.90;0.40;;;9.80;99.90;;;;;;4989268;28;20044;-71
2023/04/03 07:34:06;;;;;;;0.20;0.20;;;10.00;97.20;;;;;;4995393;28;20698;-71
2023/04/03 07:36:33;;;;;;;0.47;0.45;;;10.00;96.30;;;;;;4993207;28;20455;-71
2023/04/03 07:38:59;;;;;;;0.73;0.40;;;9.90;95.90;;;;;;4985923;28;20478;-70
2023/04/03 07:41:24;;;;;;;0.63;0.32;;;10.00;97.70;;;;;;4989157;28;20057;-71
2023/04/03 07:43:50;;;;;;;0.20;0.20;;;10.20;96.20;;;;;;4993733;28;20029;-70
2023/04/03 07:46:17;;;;;;;0.52;0.20;;;10.30;96.10;;;;;;4962594;28;20049;-69
2023/04/03 07:48:42;;;;;;;0.25;0.25;;;10.30;95.70;;;;;;4985535;28;21529;-70
2023/04/03 07:51:09;;;;;;;3.60;0.20;;;10.30;95.00;;;;;;4986882;28;20495;-70
2023/04/03 07:53:35;;;;;;;0.35;0.25;;;10.20;94.30;;;;;;4991142;28;20653;-70
2023/04/03 07:56:02;;;;;;;0.30;0.20;;;10.30;95.50;;;;;;4991619;28;20238;-70
2023/04/03 07:58:29;;;;;;;0.17;0.17;;;10.30;94.60;;;;;;4982970;28;20092;-70
2023/04/03 08:00:56;;;;;;;0.35;0.35;;;10.40;93.70;;;;;;4994674;28;20037;-70
2023/04/03 08:03:22;;;;;;;0.15;0.10;;;10.30;94.00;;;;;;4991709;28;20033;-70
2023/04/03 08:05:49;;;;;;;0.80;0.10;;;10.30;95.10;;;;;;4986477;28;20035;-70
2023/04/03 08:08:18;;;;;;;0.10;0.10;;;10.40;92.80;;;;;;4997163;28;20655;-70
2023/04/03 08:10:47;;;;;;;0.32;0.20;;;10.50;93.00;;;;;;4995334;28;20074;-70
2023/04/03 08:13:13;;;;;;;0.20;0.20;;;10.60;91.80;;;;;;4993554;28;20096;-70
2023/04/03 08:15:38;;;;;;;0.20;0.20;;;10.60;93.10;;;;;;4989755;28;20456;-70
2023/04/03 08:18:04;;;;;;;0.32;0.20;;;10.70;92.00;;;;;;4988844;28;20041;-69
2023/04/03 08:20:30;;;;;;;0.40;0.30;;;10.80;91.20;;;;;;4972703;28;20240;-70
2023/04/03 08:22:56;;;;;;;0.10;0.10;;;11.00;93.30;;;;;;4987829;28;20715;-69
2023/04/03 08:25:21;;;;;;;0.15;0.15;;;11.10;91.30;;;;;;4993900;28;20092;-70
2023/04/03 08:27:47;;;;;;;0.15;0.10;;;11.20;91.80;;;;;;4980949;28;20486;-70
2023/04/03 08:30:13;;;;;;;1.75;0.22;;;11.20;88.80;;;;;;4993164;28;20069;-70
2023/04/03 08:32:41;;;;;;;0.10;0.10;;;11.20;88.20;;;;;;4993105;28;20049;-70
2023/04/03 08:35:07;;;;;;;0.20;0.10;;;11.30;88.80;;;;;;4994002;28;20037;-70
2023/04/03 08:37:36;;;;;;;0.10;0.10;;;11.20;86.80;;;;;;4997157;28;20553;-71
2023/04/03 08:40:08;;;;;;;1.75;0.25;;;11.30;86.10;;;;;;4989919;28;20042;-70
2023/04/03 08:42:55;;;;;;;0.10;0.10;;;11.30;88.30;;;;;;4991020;28;20121;-70
2023/04/03 08:45:37;;;;;;;0.22;0.10;;;11.40;86.20;;;;;;4994313;28;20684;-69
2023/04/03 08:48:41;;;;;;;0.10;0.10;;;11.30;86.40;;;;;;4971382;28;20150;-70
2023/04/03 08:51:16;;;;;;;0.10;0.10;;;11.20;87.10;;;;;;4981878;28;20046;-70
2023/04/03 08:53:56;;;;;;;0.30;0.10;;;11.10;86.50;;;;;;4985741;28;20771;-69
2023/04/03 08:56:24;;;;;;;0.13;0.13;;;11.20;83.90;;;;;;4996135;28;20053;-69
2023/04/03 08:58:56;;;;;;;0.20;0.20;;;11.40;84.10;;;;;;4987320;28;20037;-71
2023/04/03 09:01:41;;;;;;;0.10;0.10;;;11.60;82.50;;;;;;5008262;28;20035;-71
2023/04/03 09:04:13;;;;;;;0.20;0.20;;;11.60;81.70;;;;;;4996889;28;20034;-71
2023/04/03 09:06:42;;;;;;;0.08;0.08;;;11.60;83.00;;;;;;4997593;28;20062;-71
2023/04/03 09:09:28;;;;;;;0.30;0.10;;;11.70;83.10;;;;;;4995706;28;20069;-72
2023/04/03 09:12:18;;;;;;;0.40;0.10;;;11.70;86.10;;;;;;4995679;28;20608;-72
2023/04/03 09:14:56;;;;;;;0.10;0.10;;;11.80;83.30;;;;;;4999629;28;20093;-71
2023/04/03 09:17:43;;;;;;;0.40;0.20;;;11.80;82.90;;;;;;4991795;28;20057;-70
2023/04/03 09:20:40;;;;;;;3.03;0.30;;;11.80;84.20;;;;;;4986544;28;20034;-72
2023/04/03 09:23:18;;;;;;;0.10;0.10;;;12.00;84.10;;;;;;4970836;28;20064;-71
2023/04/03 09:25:43;;;;;;;0.20;0.20;;;12.00;82.70;;;;;;4989203;28;20029;-71
2023/04/03 09:28:09;;;;;;;1.42;0.20;;;12.10;82.80;;;;;;4986758;28;20037;-71
2023/04/03 09:30:37;;;;;;;0.17;0.17;;;12.40;84.40;;;;;;4989206;28;23001;-71
2023/04/03 09:33:03;;;;;;;3.38;0.38;;;12.40;86.10;;;;;;4993068;28;20038;-71
2023/04/03 09:35:35;;;;;;;0.28;0.13;;;12.40;86.60;;;;;;4991303;28;20096;-71
2023/04/03 09:38:14;;;;;;;0.15;0.15;;;12.50;86.90;;;;;;4989193;28;20042;-71
2023/04/03 09:40:46;;;;;;;0.15;0.10;;;12.50;83.40;;;;;;4992566;28;20032;-71
2023/04/03 09:43:24;;;;;;;0.22;0.20;;;12.50;81.70;;;;;;4994518;28;20048;-71
2023/04/03 09:45:51;;;;;;;0.30;0.20;;;12.40;80.70;;;;;;4992499;28;20045;-72
2023/04/03 09:48:23;;;;;;;0.05;0.05;;;12.20;80.50;;;;;;4993303;28;20039;-71
2023/04/03 09:50:55;;;;;;;;;;;12.10;79.00;;;;;;4994152;28;20115;-71
2023/04/03 09:53:43;;;;;;;0.20;0.20;;;11.90;81.20;;;;;;4991495;28;19909;-72
2023/04/03 09:56:30;;;;;;;0.00;0.00;;;11.90;82.10;;;;;;4988640;28;20053;-71
2023/04/03 09:58:58;;;;;;;0.55;0.20;;;12.00;81.30;;;;;;4995474;28;20037;-72
2023/04/03 10:01:38;;;;;;;0.10;0.10;;;12.00;80.60;;;;;;4992186;28;20056;-71
2023/04/03 10:04:07;;;;;;;0.28;0.25;;;11.90;80.00;;;;;;4982993;28;20164;-72
2023/04/03 10:06:35;;;;;;;0.00;0.00;;;12.00;77.40;;;;;;4993107;28;20038;-71
2023/04/03 10:09:05;;;;;;;1.33;0.35;;;12.20;78.70;;;;;;4996295;28;20038;-71
2023/04/03 10:11:30;;;;;;;0.20;0.20;;;12.30;75.90;;;;;;4996281;28;20822;-71
2023/04/03 10:14:02;;;;;;;0.10;0.10;;;12.30;76.40;;;;;;4990116;28;20403;-70
2023/04/03 10:16:44;;;;;;;;;;;12.20;75.90;;;;;;4991923;28;20041;-71
2023/04/03 10:19:31;;;;;;;0.20;0.20;;;12.20;74.60;;;;;;4993335;28;20394;-70
2023/04/03 10:22:02;;;;;;;0.17;0.10;;;12.20;75.90;;;;;;4992674;28;20050;-70
2023/04/03 10:24:44;;;;;;;0.17;0.10;;;12.10;73.50;;;;;;4993576;28;20142;-70
2023/04/03 10:27:13;;;;;;;0.45;0.30;;;12.00;76.70;;;;;;4994611;28;20486;-71
2023/04/03 10:29:57;;;;;;;0.22;0.20;;;12.10;74.10;;;;;;4997330;28;20046;-71
2023/04/03 10:32:22;;;;;;;0.25;0.10;;;12.10;76.80;;;;;;4988192;28;20046;-70
2023/04/03 10:35:00;;;;;;;0.10;0.10;;;12.10;73.50;;;;;;4993422;28;20039;-69
2023/04/03 10:37:36;;;;;;;2.47;0.20;;;12.10;73.20;;;;;;4996975;28;20511;-70
2023/04/03 10:40:33;;;;;;;0.32;0.25;;;12.20;74.00;;;;;;4979964;28;20044;-70
2023/04/03 10:43:23;;;;;;;0.45;0.28;;;12.20;75.80;;;;;;4972919;28;20034;-71
2023/04/03 10:45:51;;;;;;;0.25;0.20;;;12.30;75.30;;;;;;4985807;28;20506;-70
2023/04/03 10:48:41;;;;;;;0.30;0.30;;;12.30;74.30;;;;;;4988020;28;20593;-71
2023/04/03 10:51:29;;;;;;;0.25;0.10;;;12.30;72.70;;;;;;4991273;28;20050;-71
2023/04/03 10:54:31;;;;;;;1.85;0.30;;;12.20;73.30;;;;;;4998901;28;20052;-71
2023/04/03 10:57:01;;;;;;;0.30;0.10;;;12.20;71.70;;;;;;5003268;28;20566;-71
2023/04/03 10:59:40;;;;;;;0.20;0.20;;;12.30;75.10;;;;;;4988191;28;20103;-70
2023/04/03 11:02:08;;;;;;;0.68;0.30;;;12.20;72.90;;;;;;4995883;28;20030;-71
2023/04/03 11:04:37;;;;;;;0.17;0.10;;;12.10;71.30;;;;;;4997655;28;20095;-71
2023/04/03 11:07:26;;;;;;;0.35;0.30;;;12.00;72.40;;;;;;5005955;28;21746;-71
2023/04/03 11:10:00;;;;;;;0.75;0.10;;;11.90;71.40;;;;;;4976732;28;21070;-70
2023/04/03 11:12:26;;;;;;;0.60;0.20;;;11.90;72.10;;;;;;4989606;28;20053;-70
2023/04/03 11:14:55;;;;;;;0.20;0.20;;;12.00;73.90;;;;;;4988253;28;20042;-71
2023/04/03 11:17:23;;;;;;;0.10;0.10;;;11.90;73.00;;;;;;4998113;28;20042;-70
2023/04/03 11:20:06;;;;;;;2.75;0.22;;;11.80;71.30;;;;;;4991878;28;20156;-71
2023/04/03 11:22:47;;;;;;;0.30;0.30;;;11.70;73.10;;;;;;4986198;28;20042;-70
2023/04/03 11:25:12;;;;;;;1.77;0.20;;;11.70;74.30;;;;;;4996459;28;20054;-71
2023/04/03 11:27:45;;;;;;;0.65;0.40;;;11.90;75.40;;;;;;4975662;28;20041;-70
2023/04/03 11:30:49;;;;;;;0.25;0.25;;;12.00;73.80;;;;;;4984059;28;20515;-70
2023/04/03 11:33:39;;;;;;;0.32;0.32;;;12.00;72.80;;;;;;4944796;28;20075;-70
2023/04/03 11:36:19;;;;;;;2.17;0.30;;;12.00;73.70;;;;;;4999324;28;20065;-70
2023/04/03 11:38:47;;;;;;;0.30;0.30;;;12.10;72.40;;;;;;4995235;28;20033;-71
2023/04/03 11:41:14;;;;;;;0.10;0.10;;;12.20;72.10;;;;;;4993166;28;20113;-71
2023/04/03 11:43:57;;;;;;;0.17;0.17;;;12.10;71.30;;;;;;4992123;28;20036;-71
2023/04/03 11:46:42;;;;;;;0.25;0.20;;;12.10;69.40;;;;;;5008066;28;20096;-71
2023/04/03 11:49:47;;;;;;;0.30;0.30;;;12.10;72.00;;;;;;4970411;28;20046;-71
2023/04/03 11:52:33;;;;;;;1.67;1.30;;;12.20;70.40;;;;;;4988434;28;20034;-71
2023/04/03 11:54:58;;;;;;;0.68;0.30;;;12.30;70.70;;;;;;4993781;28;20100;-71
2023/04/03 11:57:46;;;;;;;0.17;0.10;;;12.30;71.90;;;;;;4957879;28;20044;-70
2023/04/03 12:00:49;;;;;;;2.35;0.30;;;12.30;71.60;;;;;;4990306;28;20208;-71
2023/04/03 12:03:27;;;;;;;1.05;0.20;;;12.20;72.20;;;;;;4984893;28;20620;-70
2023/04/03 12:06:16;;;;;;;0.20;0.20;;;12.20;72.90;;;;;;4983683;28;20045;-71
2023/04/03 12:08:42;;;;;;;0.10;0.10;;;12.20;72.10;;;;;;4948961;28;20074;-70
2023/04/03 12:11:10;;;;;;;0.98;0.40;;;12.10;72.30;;;;;;4987701;28;20168;-71
2023/04/03 12:14:05;;;;;;;0.30;0.30;;;12.00;70.70;;;;;;4984823;28;20046;-70
2023/04/03 12:16:30;;;;;;;1.15;0.30;;;12.10;69.40;;;;;;4998171;28;20576;-70
2023/04/03 12:19:04;;;;;;;0.60;0.40;;;12.10;70.70;;;;;;4994674;28;20042;-70
2023/04/03 12:21:29;;;;;;;0.22;0.22;;;12.00;69.50;;;;;;4999761;28;20026;-69
2023/04/03 12:24:27;;;;;;;0.90;0.40;;;12.00;71.80;;;;;;4994897;28;20044;-70
2023/04/03 12:27:20;;;;;;;1.85;0.30;;;12.10;70.30;;;;;;4992942;28;20107;-70
2023/04/03 12:30:03;;;;;;;3.42;2.80;;;12.10;71.00;;;;;;4996143;28;20515;-71
2023/04/03 12:32:57;;;;;;;7.90;4.43;;;12.10;69.20;;;;;;4995565;28;20037;-70
2023/04/03 12:35:40;;;;;;;0.90;0.82;;;12.00;68.30;;;;;;4993076;28;20064;-69
2023/04/03 12:38:38;;;;;;;0.30;0.30;;;12.00;69.40;;;;;;5003329;28;20040;-69
2023/04/03 12:41:29;;;;;;;0.55;0.50;;;12.00;70.10;;;;;;4974511;28;22284;-70
2023/04/03 12:44:13;;;;;;;0.63;0.40;;;11.90;70.00;;;;;;4984086;28;20731;-70
2023/04/03 12:46:48;;;;;;;1.40;0.60;;;11.90;71.00;;;;;;4985388;28;20050;-70
2023/04/03 12:49:26;;;;;;;1.15;1.05;;;12.10;70.30;;;;;;4989506;28;20053;-69
2023/04/03 12:51:52;;;;;;;0.40;0.40;;;12.20;70.80;;;;;;4989426;28;20034;-69
2023/04/03 12:54:39;;;;;;;0.77;0.70;;;12.10;72.10;;;;;;4995935;28;20093;-70
2023/04/03 12:57:23;;;;;;;23.35;2.53;;;12.20;73.20;;;;;;4990583;28;20030;-69
2023/04/03 12:59:49;;;;;;;0.77;0.50;;;12.30;70.50;;;;;;4980819;28;20702;-69
2023/04/03 13:02:31;;;;;;;1.42;0.40;;;12.30;70.90;;;;;;4994487;28;20050;-69
2023/04/03 13:04:59;;;;;;;0.70;0.38;;;12.30;70.30;;;;;;4996045;28;20030;-70
2023/04/03 13:07:31;;;;;;;0.40;0.40;;;12.30;70.20;;;;;;4979527;28;20042;-69
2023/04/03 13:10:14;;;;;;;0.32;0.32;;;12.40;72.50;;;;;;4996274;28;20046;-69